Fountain Run, KY (42133)

7:41 PM CST on February 08, 2016 (GMT -0600)
Pumpkintown | | Change Station
CLOSE
Current Station
Personal Weather Station
Location: Red Boiling Springs, TN
Elevation: 899 ft
Nearby Weather Stations
Active Advisory: Winter Weather Advisory

Elev 899 ft 36.58 °N, 85.91 °W | Updated 15 seconds ago

Overcast
Overcast
28.1 °F
Feels Like 22 °F
N
6.0
Wind Variable Wind from West
Gusts 8.0 mph

Today
High -- | Low -- °F
--% Chance of Precip.
Yesterday
High -- | Low -- °F
Precip. -- in
Pressure 29.85 in
Visibility 10.0 miles
Clouds Scattered Clouds 2300 ft
Mostly Cloudy 4500 ft
Overcast 5500 ft
Windchill 22 °F
Dew Point 25 °F
Humidity 89%
Rainfall 0.00 in
Snow Depth Not available.
6:39 AM 5:16 PM
New Moon, 0% visible
METAR KGLW 090110Z AUTO 29009G17KT 10SM SCT023 BKN045 OVC055 M02/M05 A2985 RMK AO2 T10171047
Pressure 29.85 in
Visibility 10.0 miles
Clouds Scattered Clouds 2300 ft
Mostly Cloudy 4500 ft
Overcast 5500 ft
Windchill 22 °F
Dew Point 25 °F
Humidity 89%
Rainfall 0.00 in
Snow Depth Not available.
6:39 AM 5:16 PM
New Moon, 0% visible
METAR KGLW 090110Z AUTO 29009G17KT 10SM SCT023 BKN045 OVC055 M02/M05 A2985 RMK AO2 T10171047

10-Day Weather Forecast

Almanac

Astronomy

Feb. 08, 2016 Rise Set
Actual Time
Civil Twilight
Nautical Twilight
Astronomical Twilight
Moon
Length of Visible Light
Length of Day
Tomorrow will be .
, % of the Moon is Illuminated

Today's Extremes

State Highs State Lows

Community

WunderPhotos

Upload Photos

1,891,527 photos uploaded!

WunderBlog® & News

Nearby

Air Quality

  Air Quality AQ Index Pollutant
Not available.

Snow Depth

Station Depth Elevation

Earthquake Activity

City Distance Mag. Time & Date
Minimum magnitude displayed is 2.5.

Coastal Water Temperatures

Place Temperature

Stations

Nearby Weather Stations

Station Location Temp. Windchill Dew Point Humidity Wind Precip. Elev Updated Type
                   

Watches & Warnings

Winter Weather Advisory
Issued: 1:54 PM CST Feb. 8, 2016 – National Weather Service

... Winter Weather Advisory in effect until 5 PM CST Tuesday...

The National Weather Service in Louisville has issued a Winter
Weather Advisory for snow... which is in effect until 5 PM CST
Tuesday.

* Timing... late this afternoon through at least Tuesday evening.

* Main impact... periods of moderate to briefly heavy snow
showers will impact travel at times. Roads may become slick
and snow covered... especially secondary and untreated
surfaces.

* Other impacts... gusty winds along with moderate snow showers may
reduce visibility at times. Also wet roadways may become slick
overnight as temperatures drop.

Precautionary/preparedness actions...

Research shows that more traffic accidents occur with an inch or
less of snow... before drivers realize that traction is reduced.
Don't become a statistic... slow down and leave extra distance
between vehicles.